sensor_id;sensor_type;location;lat;lon;timestamp;P1;durP1;ratioP1;P2;durP2;ratioP2
21270;SDS011;10795;50.796;3.860;2023-06-04T00:02:12;2.70;;;1.13;;
21270;SDS011;10795;50.796;3.860;2023-06-04T00:04:38;1.85;;;1.15;;
21270;SDS011;10795;50.796;3.860;2023-06-04T00:07:04;4.55;;;1.35;;
21270;SDS011;10795;50.796;3.860;2023-06-04T00:09:30;2.45;;;0.65;;
21270;SDS011;10795;50.796;3.860;2023-06-04T00:11:56;2.67;;;1.10;;
21270;SDS011;10795;50.796;3.860;2023-06-04T00:14:25;4.05;;;1.15;;
21270;SDS011;10795;50.796;3.860;2023-06-04T00:16:51;3.78;;;0.80;;
21270;SDS011;10795;50.796;3.860;2023-06-04T00:19:16;2.00;;;1.08;;
21270;SDS011;10795;50.796;3.860;2023-06-04T00:21:42;4.75;;;1.27;;
21270;SDS011;10795;50.796;3.860;2023-06-04T00:24:08;4.97;;;1.35;;
21270;SDS011;10795;50.796;3.860;2023-06-04T00:26:34;2.17;;;1.17;;
21270;SDS011;10795;50.796;3.860;2023-06-04T00:29:09;2.22;;;1.20;;
21270;SDS011;10795;50.796;3.860;2023-06-04T00:31:35;1.67;;;1.00;;
21270;SDS011;10795;50.796;3.860;2023-06-04T00:34:02;1.13;;;1.00;;
21270;SDS011;10795;50.796;3.860;2023-06-04T00:36:28;1.67;;;1.02;;
21270;SDS011;10795;50.796;3.860;2023-06-04T00:38:54;1.30;;;0.90;;
21270;SDS011;10795;50.796;3.860;2023-06-04T00:41:20;2.40;;;1.33;;
21270;SDS011;10795;50.796;3.860;2023-06-04T00:43:52;3.65;;;1.33;;
21270;SDS011;10795;50.796;3.860;2023-06-04T00:46:22;1.00;;;0.90;;
21270;SDS011;10795;50.796;3.860;2023-06-04T00:48:50;1.55;;;0.98;;
21270;SDS011;10795;50.796;3.860;2023-06-04T00:51:17;2.42;;;1.20;;
21270;SDS011;10795;50.796;3.860;2023-06-04T00:53:50;1.52;;;0.90;;
21270;SDS011;10795;50.796;3.860;2023-06-04T00:56:17;1.10;;;0.90;;
21270;SDS011;10795;50.796;3.860;2023-06-04T00:58:44;1.83;;;1.20;;
21270;SDS011;10795;50.796;3.860;2023-06-04T01:01:20;1.65;;;1.00;;
21270;SDS011;10795;50.796;3.860;2023-06-04T01:03:54;4.30;;;1.27;;
21270;SDS011;10795;50.796;3.860;2023-06-04T01:06:24;2.83;;;1.20;;
21270;SDS011;10795;50.796;3.860;2023-06-04T01:09:08;2.30;;;0.93;;
21270;SDS011;10795;50.796;3.860;2023-06-04T01:11:39;2.40;;;1.10;;
21270;SDS011;10795;50.796;3.860;2023-06-04T01:25:37;3.50;;;1.60;;
21270;SDS011;10795;50.796;3.860;2023-06-04T01:30:32;5.07;;;1.98;;
21270;SDS011;10795;50.796;3.860;2023-06-04T01:33:00;2.65;;;1.40;;
21270;SDS011;10795;50.796;3.860;2023-06-04T01:35:27;1.20;;;1.10;;
21270;SDS011;10795;50.796;3.860;2023-06-04T01:37:54;2.72;;;1.58;;
21270;SDS011;10795;50.796;3.860;2023-06-04T01:40:20;2.20;;;1.48;;
21270;SDS011;10795;50.796;3.860;2023-06-04T01:42:46;2.92;;;1.40;;
21270;SDS011;10795;50.796;3.860;2023-06-04T01:45:12;3.67;;;1.85;;
21270;SDS011;10795;50.796;3.860;2023-06-04T01:47:38;1.52;;;1.17;;
21270;SDS011;10795;50.796;3.860;2023-06-04T01:50:04;2.45;;;1.65;;
21270;SDS011;10795;50.796;3.860;2023-06-04T01:52:34;3.28;;;1.45;;
21270;SDS011;10795;50.796;3.860;2023-06-04T01:55:04;1.80;;;1.10;;
21270;SDS011;10795;50.796;3.860;2023-06-04T01:57:32;4.38;;;1.58;;
21270;SDS011;10795;50.796;3.860;2023-06-04T01:59:59;5.47;;;1.77;;
21270;SDS011;10795;50.796;3.860;2023-06-04T02:02:26;4.25;;;1.55;;
21270;SDS011;10795;50.796;3.860;2023-06-04T02:04:52;2.20;;;1.60;;
21270;SDS011;10795;50.796;3.860;2023-06-04T02:07:18;1.52;;;1.42;;
21270;SDS011;10795;50.796;3.860;2023-06-04T02:09:48;5.25;;;1.90;;
21270;SDS011;10795;50.796;3.860;2023-06-04T02:12:14;1.92;;;1.48;;
21270;SDS011;10795;50.796;3.860;2023-06-04T02:14:40;2.53;;;1.50;;
21270;SDS011;10795;50.796;3.860;2023-06-04T02:17:11;2.05;;;1.30;;
21270;SDS011;10795;50.796;3.860;2023-06-04T02:19:42;2.30;;;1.52;;
21270;SDS011;10795;50.796;3.860;2023-06-04T02:22:12;1.95;;;1.58;;
21270;SDS011;10795;50.796;3.860;2023-06-04T02:24:38;5.72;;;2.42;;
21270;SDS011;10795;50.796;3.860;2023-06-04T02:27:07;2.90;;;1.80;;
21270;SDS011;10795;50.796;3.860;2023-06-04T02:29:35;2.15;;;1.77;;
21270;SDS011;10795;50.796;3.860;2023-06-04T02:32:01;2.88;;;1.60;;
21270;SDS011;10795;50.796;3.860;2023-06-04T02:34:27;2.63;;;1.40;;
21270;SDS011;10795;50.796;3.860;2023-06-04T02:36:53;2.13;;;1.77;;
21270;SDS011;10795;50.796;3.860;2023-06-04T02:39:20;1.80;;;1.50;;
21270;SDS011;10795;50.796;3.860;2023-06-04T02:41:46;2.65;;;1.45;;
21270;SDS011;10795;50.796;3.860;2023-06-04T02:44:12;4.55;;;1.45;;
21270;SDS011;10795;50.796;3.860;2023-06-04T02:46:38;2.45;;;1.63;;
21270;SDS011;10795;50.796;3.860;2023-06-04T02:49:06;4.28;;;1.85;;
21270;SDS011;10795;50.796;3.860;2023-06-04T02:51:32;3.30;;;1.83;;
21270;SDS011;10795;50.796;3.860;2023-06-04T02:53:58;2.85;;;2.00;;
21270;SDS011;10795;50.796;3.860;2023-06-04T02:56:24;4.32;;;1.92;;
21270;SDS011;10795;50.796;3.860;2023-06-04T02:58:51;6.60;;;2.10;;
21270;SDS011;10795;50.796;3.860;2023-06-04T03:01:24;4.78;;;1.90;;
21270;SDS011;10795;50.796;3.860;2023-06-04T03:03:51;2.35;;;1.85;;
21270;SDS011;10795;50.796;3.860;2023-06-04T03:06:18;3.25;;;1.92;;
21270;SDS011;10795;50.796;3.860;2023-06-04T03:08:46;2.50;;;1.80;;
21270;SDS011;10795;50.796;3.860;2023-06-04T03:11:13;2.92;;;1.60;;
21270;SDS011;10795;50.796;3.860;2023-06-04T03:13:39;3.33;;;1.95;;
21270;SDS011;10795;50.796;3.860;2023-06-04T03:16:05;3.10;;;1.77;;
21270;SDS011;10795;50.796;3.860;2023-06-04T03:18:39;7.30;;;2.25;;
21270;SDS011;10795;50.796;3.860;2023-06-04T03:21:05;3.65;;;2.25;;
21270;SDS011;10795;50.796;3.860;2023-06-04T03:23:35;3.05;;;2.20;;
21270;SDS011;10795;50.796;3.860;2023-06-04T03:26:01;1.58;;;1.48;;
21270;SDS011;10795;50.796;3.860;2023-06-04T03:28:28;3.10;;;1.90;;
21270;SDS011;10795;50.796;3.860;2023-06-04T03:30:54;4.03;;;1.95;;
21270;SDS011;10795;50.796;3.860;2023-06-04T03:33:22;2.35;;;2.13;;
21270;SDS011;10795;50.796;3.860;2023-06-04T03:35:49;2.88;;;1.75;;
21270;SDS011;10795;50.796;3.860;2023-06-04T03:38:16;3.33;;;1.60;;
21270;SDS011;10795;50.796;3.860;2023-06-04T03:40:42;4.55;;;2.13;;
21270;SDS011;10795;50.796;3.860;2023-06-04T03:43:09;4.90;;;2.08;;
21270;SDS011;10795;50.796;3.860;2023-06-04T03:45:36;2.95;;;1.70;;
21270;SDS011;10795;50.796;3.860;2023-06-04T03:48:04;3.50;;;1.85;;
21270;SDS011;10795;50.796;3.860;2023-06-04T03:52:57;2.70;;;1.80;;
21270;SDS011;10795;50.796;3.860;2023-06-04T03:55:23;3.65;;;1.85;;
21270;SDS011;10795;50.796;3.860;2023-06-04T03:57:50;3.65;;;1.92;;
21270;SDS011;10795;50.796;3.860;2023-06-04T04:00:18;1.48;;;1.38;;
21270;SDS011;10795;50.796;3.860;2023-06-04T04:02:48;4.32;;;1.98;;
21270;SDS011;10795;50.796;3.860;2023-06-04T04:05:21;2.47;;;1.90;;
21270;SDS011;10795;50.796;3.860;2023-06-04T04:07:48;2.45;;;1.80;;
21270;SDS011;10795;50.796;3.860;2023-06-04T04:10:18;3.25;;;1.70;;
21270;SDS011;10795;50.796;3.860;2023-06-04T04:12:46;2.30;;;1.50;;
21270;SDS011;10795;50.796;3.860;2023-06-04T04:15:16;4.80;;;1.83;;
21270;SDS011;10795;50.796;3.860;2023-06-04T04:17:43;4.38;;;2.00;;
21270;SDS011;10795;50.796;3.860;2023-06-04T04:20:09;2.67;;;1.92;;
21270;SDS011;10795;50.796;3.860;2023-06-04T04:22:42;3.33;;;2.15;;
21270;SDS011;10795;50.796;3.860;2023-06-04T04:25:09;3.67;;;2.10;;
21270;SDS011;10795;50.796;3.860;2023-06-04T04:27:35;2.58;;;1.77;;
21270;SDS011;10795;50.796;3.860;2023-06-04T04:30:08;4.72;;;2.20;;
21270;SDS011;10795;50.796;3.860;2023-06-04T04:32:35;2.75;;;1.92;;
21270;SDS011;10795;50.796;3.860;2023-06-04T04:35:07;1.63;;;1.52;;
21270;SDS011;10795;50.796;3.860;2023-06-04T04:37:36;3.22;;;2.08;;
21270;SDS011;10795;50.796;3.860;2023-06-04T04:40:05;2.97;;;2.00;;
21270;SDS011;10795;50.796;3.860;2023-06-04T04:42:35;2.72;;;1.73;;
21270;SDS011;10795;50.796;3.860;2023-06-04T04:47:31;4.22;;;2.05;;
21270;SDS011;10795;50.796;3.860;2023-06-04T04:49:57;2.88;;;2.00;;
21270;SDS011;10795;50.796;3.860;2023-06-04T04:52:24;2.03;;;1.80;;
21270;SDS011;10795;50.796;3.860;2023-06-04T04:54:50;1.60;;;1.45;;
21270;SDS011;10795;50.796;3.860;2023-06-04T04:57:17;3.88;;;1.48;;
21270;SDS011;10795;50.796;3.860;2023-06-04T04:59:47;1.95;;;1.52;;
21270;SDS011;10795;50.796;3.860;2023-06-04T05:02:15;5.47;;;2.10;;
21270;SDS011;10795;50.796;3.860;2023-06-04T05:04:41;1.98;;;1.25;;
21270;SDS011;10795;50.796;3.860;2023-06-04T05:07:07;2.70;;;1.45;;
21270;SDS011;10795;50.796;3.860;2023-06-04T05:09:33;4.65;;;2.15;;
21270;SDS011;10795;50.796;3.860;2023-06-04T05:11:58;2.15;;;1.40;;
21270;SDS011;10795;50.796;3.860;2023-06-04T05:14:24;1.98;;;1.50;;
21270;SDS011;10795;50.796;3.860;2023-06-04T05:16:50;3.08;;;1.30;;
21270;SDS011;10795;50.796;3.860;2023-06-04T05:19:17;1.90;;;1.45;;
21270;SDS011;10795;50.796;3.860;2023-06-04T05:21:43;4.13;;;2.20;;
21270;SDS011;10795;50.796;3.860;2023-06-04T05:24:09;3.20;;;1.60;;
21270;SDS011;10795;50.796;3.860;2023-06-04T05:26:38;3.28;;;2.10;;
21270;SDS011;10795;50.796;3.860;2023-06-04T05:29:10;5.05;;;2.20;;
21270;SDS011;10795;50.796;3.860;2023-06-04T05:31:40;1.70;;;1.38;;
21270;SDS011;10795;50.796;3.860;2023-06-04T05:34:07;4.47;;;1.20;;
21270;SDS011;10795;50.796;3.860;2023-06-04T05:36:37;3.35;;;1.50;;
21270;SDS011;10795;50.796;3.860;2023-06-04T05:39:06;1.40;;;1.30;;
21270;SDS011;10795;50.796;3.860;2023-06-04T05:41:41;1.77;;;1.60;;
21270;SDS011;10795;50.796;3.860;2023-06-04T05:44:08;1.75;;;1.30;;
21270;SDS011;10795;50.796;3.860;2023-06-04T05:46:34;2.03;;;1.40;;
21270;SDS011;10795;50.796;3.860;2023-06-04T05:49:00;1.33;;;1.08;;
21270;SDS011;10795;50.796;3.860;2023-06-04T05:51:27;2.10;;;1.33;;
21270;SDS011;10795;50.796;3.860;2023-06-04T05:53:52;2.75;;;1.02;;
21270;SDS011;10795;50.796;3.860;2023-06-04T05:56:18;1.40;;;1.25;;
21270;SDS011;10795;50.796;3.860;2023-06-04T05:58:50;3.05;;;1.60;;
21270;SDS011;10795;50.796;3.860;2023-06-04T06:01:18;2.38;;;1.40;;
21270;SDS011;10795;50.796;3.860;2023-06-04T06:03:44;1.55;;;1.38;;
21270;SDS011;10795;50.796;3.860;2023-06-04T06:06:12;2.22;;;1.55;;
21270;SDS011;10795;50.796;3.860;2023-06-04T06:08:41;2.13;;;1.45;;
21270;SDS011;10795;50.796;3.860;2023-06-04T06:11:09;1.40;;;1.30;;
21270;SDS011;10795;50.796;3.860;2023-06-04T06:13:35;3.42;;;1.50;;
21270;SDS011;10795;50.796;3.860;2023-06-04T06:16:01;2.17;;;1.30;;
21270;SDS011;10795;50.796;3.860;2023-06-04T06:18:27;1.80;;;1.20;;
21270;SDS011;10795;50.796;3.860;2023-06-04T06:20:53;2.65;;;1.60;;
21270;SDS011;10795;50.796;3.860;2023-06-04T06:23:19;2.17;;;1.67;;
21270;SDS011;10795;50.796;3.860;2023-06-04T06:25:50;1.88;;;1.25;;
21270;SDS011;10795;50.796;3.860;2023-06-04T06:28:22;2.42;;;1.80;;
21270;SDS011;10795;50.796;3.860;2023-06-04T06:30:51;2.47;;;1.50;;
21270;SDS011;10795;50.796;3.860;2023-06-04T06:33:17;2.25;;;1.23;;
21270;SDS011;10795;50.796;3.860;2023-06-04T06:35:48;2.58;;;1.65;;
21270;SDS011;10795;50.796;3.860;2023-06-04T06:38:14;3.03;;;1.42;;
21270;SDS011;10795;50.796;3.860;2023-06-04T06:40:40;1.92;;;1.27;;
21270;SDS011;10795;50.796;3.860;2023-06-04T06:43:06;2.45;;;1.10;;
21270;SDS011;10795;50.796;3.860;2023-06-04T06:45:32;1.67;;;1.02;;
21270;SDS011;10795;50.796;3.860;2023-06-04T06:47:57;6.78;;;1.10;;
21270;SDS011;10795;50.796;3.860;2023-06-04T06:50:23;5.05;;;1.58;;
21270;SDS011;10795;50.796;3.860;2023-06-04T06:52:49;3.17;;;1.20;;
21270;SDS011;10795;50.796;3.860;2023-06-04T06:55:15;2.03;;;1.30;;
21270;SDS011;10795;50.796;3.860;2023-06-04T06:57:41;2.22;;;1.20;;
21270;SDS011;10795;50.796;3.860;2023-06-04T07:00:07;2.50;;;1.20;;
21270;SDS011;10795;50.796;3.860;2023-06-04T07:02:33;1.73;;;1.10;;
21270;SDS011;10795;50.796;3.860;2023-06-04T07:04:59;2.13;;;1.20;;
21270;SDS011;10795;50.796;3.860;2023-06-04T07:07:25;2.03;;;1.20;;
21270;SDS011;10795;50.796;3.860;2023-06-04T07:09:51;1.65;;;1.35;;
21270;SDS011;10795;50.796;3.860;2023-06-04T07:12:17;1.98;;;1.05;;
21270;SDS011;10795;50.796;3.860;2023-06-04T07:14:43;4.03;;;1.70;;
21270;SDS011;10795;50.796;3.860;2023-06-04T07:17:09;1.50;;;1.05;;
21270;SDS011;10795;50.796;3.860;2023-06-04T07:19:34;2.15;;;1.25;;
21270;SDS011;10795;50.796;3.860;2023-06-04T07:22:00;1.60;;;1.20;;
21270;SDS011;10795;50.796;3.860;2023-06-04T07:24:26;2.67;;;1.23;;
21270;SDS011;10795;50.796;3.860;2023-06-04T07:26:52;2.88;;;1.15;;
21270;SDS011;10795;50.796;3.860;2023-06-04T07:29:18;1.60;;;1.10;;
21270;SDS011;10795;50.796;3.860;2023-06-04T07:31:43;2.00;;;1.35;;
21270;SDS011;10795;50.796;3.860;2023-06-04T07:34:09;2.08;;;1.30;;
21270;SDS011;10795;50.796;3.860;2023-06-04T07:36:35;1.42;;;0.93;;
21270;SDS011;10795;50.796;3.860;2023-06-04T07:39:01;1.20;;;1.10;;
21270;SDS011;10795;50.796;3.860;2023-06-04T07:41:29;1.98;;;1.33;;
21270;SDS011;10795;50.796;3.860;2023-06-04T07:43:55;2.92;;;1.08;;
21270;SDS011;10795;50.796;3.860;2023-06-04T07:46:21;2.92;;;1.00;;
21270;SDS011;10795;50.796;3.860;2023-06-04T07:48:47;2.25;;;0.90;;
21270;SDS011;10795;50.796;3.860;2023-06-04T07:51:13;1.80;;;1.20;;
21270;SDS011;10795;50.796;3.860;2023-06-04T07:53:39;1.98;;;0.90;;
21270;SDS011;10795;50.796;3.860;2023-06-04T07:56:05;1.42;;;1.05;;
21270;SDS011;10795;50.796;3.860;2023-06-04T07:58:31;1.83;;;0.95;;
21270;SDS011;10795;50.796;3.860;2023-06-04T08:00:57;4.00;;;1.17;;
21270;SDS011;10795;50.796;3.860;2023-06-04T08:03:23;2.60;;;1.08;;
21270;SDS011;10795;50.796;3.860;2023-06-04T08:05:49;0.75;;;0.75;;
21270;SDS011;10795;50.796;3.860;2023-06-04T08:08:15;0.90;;;0.90;;
21270;SDS011;10795;50.796;3.860;2023-06-04T08:10:41;1.75;;;0.80;;
21270;SDS011;10795;50.796;3.860;2023-06-04T08:13:07;1.13;;;0.98;;
21270;SDS011;10795;50.796;3.860;2023-06-04T08:15:33;1.90;;;0.80;;
21270;SDS011;10795;50.796;3.860;2023-06-04T08:17:59;1.92;;;1.02;;
21270;SDS011;10795;50.796;3.860;2023-06-04T08:20:25;1.10;;;0.80;;
21270;SDS011;10795;50.796;3.860;2023-06-04T08:22:51;0.60;;;0.60;;
21270;SDS011;10795;50.796;3.860;2023-06-04T08:25:17;1.05;;;0.90;;
21270;SDS011;10795;50.796;3.860;2023-06-04T08:27:42;4.20;;;1.10;;
21270;SDS011;10795;50.796;3.860;2023-06-04T08:30:09;1.65;;;0.90;;
21270;SDS011;10795;50.796;3.860;2023-06-04T08:32:35;9.65;;;1.08;;
21270;SDS011;10795;50.796;3.860;2023-06-04T08:35:00;3.33;;;0.90;;
21270;SDS011;10795;50.796;3.860;2023-06-04T08:37:26;5.28;;;1.23;;
21270;SDS011;10795;50.796;3.860;2023-06-04T08:39:52;1.20;;;0.70;;
21270;SDS011;10795;50.796;3.860;2023-06-04T08:44:50;1.15;;;0.90;;
21270;SDS011;10795;50.796;3.860;2023-06-04T08:47:17;2.50;;;1.45;;
21270;SDS011;10795;50.796;3.860;2023-06-04T08:49:44;2.05;;;1.10;;
21270;SDS011;10795;50.796;3.860;2023-06-04T08:52:16;1.75;;;0.90;;
21270;SDS011;10795;50.796;3.860;2023-06-04T08:54:42;0.90;;;0.60;;
21270;SDS011;10795;50.796;3.860;2023-06-04T08:57:09;1.27;;;0.70;;
21270;SDS011;10795;50.796;3.860;2023-06-04T08:59:35;1.73;;;0.82;;
21270;SDS011;10795;50.796;3.860;2023-06-04T09:02:01;1.83;;;0.70;;
21270;SDS011;10795;50.796;3.860;2023-06-04T09:04:29;1.48;;;0.80;;
21270;SDS011;10795;50.796;3.860;2023-06-04T09:06:55;0.60;;;0.60;;
21270;SDS011;10795;50.796;3.860;2023-06-04T09:09:27;1.17;;;0.88;;
21270;SDS011;10795;50.796;3.860;2023-06-04T09:11:55;1.85;;;0.65;;
21270;SDS011;10795;50.796;3.860;2023-06-04T09:14:22;1.63;;;0.80;;
21270;SDS011;10795;50.796;3.860;2023-06-04T09:16:49;2.42;;;0.73;;
21270;SDS011;10795;50.796;3.860;2023-06-04T09:19:16;6.60;;;0.60;;
21270;SDS011;10795;50.796;3.860;2023-06-04T09:21:46;1.40;;;0.77;;
21270;SDS011;10795;50.796;3.860;2023-06-04T09:24:13;0.90;;;0.82;;
21270;SDS011;10795;50.796;3.860;2023-06-04T09:26:39;1.48;;;0.90;;
21270;SDS011;10795;50.796;3.860;2023-06-04T09:29:05;1.13;;;0.68;;
21270;SDS011;10795;50.796;3.860;2023-06-04T09:31:31;0.63;;;0.52;;
21270;SDS011;10795;50.796;3.860;2023-06-04T09:34:02;1.45;;;0.65;;
21270;SDS011;10795;50.796;3.860;2023-06-04T09:36:35;1.27;;;0.70;;
21270;SDS011;10795;50.796;3.860;2023-06-04T09:39:14;0.90;;;0.60;;
21270;SDS011;10795;50.796;3.860;2023-06-04T09:41:43;1.15;;;0.82;;
21270;SDS011;10795;50.796;3.860;2023-06-04T09:44:09;2.45;;;0.80;;
21270;SDS011;10795;50.796;3.860;2023-06-04T09:46:37;1.52;;;0.80;;
21270;SDS011;10795;50.796;3.860;2023-06-04T09:49:06;0.98;;;0.60;;
21270;SDS011;10795;50.796;3.860;2023-06-04T09:51:32;0.95;;;0.93;;
21270;SDS011;10795;50.796;3.860;2023-06-04T09:53:59;2.85;;;0.80;;
21270;SDS011;10795;50.796;3.860;2023-06-04T09:56:26;1.75;;;0.75;;
21270;SDS011;10795;50.796;3.860;2023-06-04T09:58:57;1.40;;;0.85;;
21270;SDS011;10795;50.796;3.860;2023-06-04T10:01:28;1.90;;;0.80;;
21270;SDS011;10795;50.796;3.860;2023-06-04T10:03:55;1.00;;;0.80;;
21270;SDS011;10795;50.796;3.860;2023-06-04T10:06:27;4.53;;;0.70;;
21270;SDS011;10795;50.796;3.860;2023-06-04T10:08:58;5.35;;;0.77;;
21270;SDS011;10795;50.796;3.860;2023-06-04T10:11:34;2.83;;;0.60;;
21270;SDS011;10795;50.796;3.860;2023-06-04T10:14:03;1.20;;;0.70;;
21270;SDS011;10795;50.796;3.860;2023-06-04T10:16:36;0.93;;;0.57;;
21270;SDS011;10795;50.796;3.860;2023-06-04T10:19:07;1.90;;;0.75;;
21270;SDS011;10795;50.796;3.860;2023-06-04T10:21:33;0.82;;;0.82;;
21270;SDS011;10795;50.796;3.860;2023-06-04T10:24:02;0.98;;;0.98;;
21270;SDS011;10795;50.796;3.860;2023-06-04T10:26:29;4.63;;;0.70;;
21270;SDS011;10795;50.796;3.860;2023-06-04T10:28:56;2.00;;;0.90;;
21270;SDS011;10795;50.796;3.860;2023-06-04T10:31:22;1.23;;;0.85;;
21270;SDS011;10795;50.796;3.860;2023-06-04T10:33:53;3.05;;;0.75;;
21270;SDS011;10795;50.796;3.860;2023-06-04T10:36:23;0.60;;;0.60;;
21270;SDS011;10795;50.796;3.860;2023-06-04T10:38:52;1.50;;;0.70;;
21270;SDS011;10795;50.796;3.860;2023-06-04T10:41:19;2.40;;;1.10;;
21270;SDS011;10795;50.796;3.860;2023-06-04T10:43:46;1.70;;;1.00;;
21270;SDS011;10795;50.796;3.860;2023-06-04T10:46:17;2.13;;;1.02;;
21270;SDS011;10795;50.796;3.860;2023-06-04T10:48:51;1.50;;;0.77;;
21270;SDS011;10795;50.796;3.860;2023-06-04T10:51:30;0.73;;;0.70;;
21270;SDS011;10795;50.796;3.860;2023-06-04T10:53:56;2.55;;;0.80;;
21270;SDS011;10795;50.796;3.860;2023-06-04T10:58:52;1.17;;;0.70;;
21270;SDS011;10795;50.796;3.860;2023-06-04T11:01:25;1.90;;;1.38;;
21270;SDS011;10795;50.796;3.860;2023-06-04T11:03:56;2.47;;;1.48;;
21270;SDS011;10795;50.796;3.860;2023-06-04T11:06:23;2.10;;;1.38;;
21270;SDS011;10795;50.796;3.860;2023-06-04T11:09:05;3.05;;;1.20;;
21270;SDS011;10795;50.796;3.860;2023-06-04T11:11:31;2.33;;;0.90;;
21270;SDS011;10795;50.796;3.860;2023-06-04T11:14:07;1.98;;;0.75;;
21270;SDS011;10795;50.796;3.860;2023-06-04T11:16:34;0.98;;;0.68;;
21270;SDS011;10795;50.796;3.860;2023-06-04T11:18:59;1.58;;;0.77;;
21270;SDS011;10795;50.796;3.860;2023-06-04T11:21:27;1.35;;;0.60;;
21270;SDS011;10795;50.796;3.860;2023-06-04T11:23:59;1.75;;;0.70;;
21270;SDS011;10795;50.796;3.860;2023-06-04T11:26:35;2.35;;;0.80;;
21270;SDS011;10795;50.796;3.860;2023-06-04T11:29:02;1.10;;;0.80;;
21270;SDS011;10795;50.796;3.860;2023-06-04T11:31:41;1.13;;;0.80;;
21270;SDS011;10795;50.796;3.860;2023-06-04T11:34:08;0.70;;;0.60;;
21270;SDS011;10795;50.796;3.860;2023-06-04T11:36:34;3.97;;;0.63;;
21270;SDS011;10795;50.796;3.860;2023-06-04T11:39:02;1.60;;;0.90;;
21270;SDS011;10795;50.796;3.860;2023-06-04T11:41:31;1.83;;;0.63;;
21270;SDS011;10795;50.796;3.860;2023-06-04T11:44:01;2.08;;;0.70;;
21270;SDS011;10795;50.796;3.860;2023-06-04T11:46:30;3.70;;;0.80;;
21270;SDS011;10795;50.796;3.860;2023-06-04T11:49:00;0.98;;;0.65;;
21270;SDS011;10795;50.796;3.860;2023-06-04T11:51:26;6.50;;;0.88;;
21270;SDS011;10795;50.796;3.860;2023-06-04T11:53:52;4.18;;;0.77;;
21270;SDS011;10795;50.796;3.860;2023-06-04T11:56:20;1.58;;;0.70;;
21270;SDS011;10795;50.796;3.860;2023-06-04T11:58:46;2.75;;;0.50;;
21270;SDS011;10795;50.796;3.860;2023-06-04T12:01:12;2.58;;;0.90;;
21270;SDS011;10795;50.796;3.860;2023-06-04T12:03:39;1.13;;;0.77;;
21270;SDS011;10795;50.796;3.860;2023-06-04T12:06:14;6.60;;;0.75;;
21270;SDS011;10795;50.796;3.860;2023-06-04T12:08:47;3.35;;;0.70;;
21270;SDS011;10795;50.796;3.860;2023-06-04T12:11:24;1.67;;;0.80;;
21270;SDS011;10795;50.796;3.860;2023-06-04T12:13:56;1.23;;;0.60;;
21270;SDS011;10795;50.796;3.860;2023-06-04T12:16:28;2.03;;;0.70;;
21270;SDS011;10795;50.796;3.860;2023-06-04T12:19:04;2.58;;;0.80;;
21270;SDS011;10795;50.796;3.860;2023-06-04T12:21:31;0.90;;;0.60;;
21270;SDS011;10795;50.796;3.860;2023-06-04T12:24:07;0.90;;;0.70;;
21270;SDS011;10795;50.796;3.860;2023-06-04T12:26:38;3.90;;;1.15;;
21270;SDS011;10795;50.796;3.860;2023-06-04T12:31:36;2.08;;;0.73;;
21270;SDS011;10795;50.796;3.860;2023-06-04T12:34:03;2.60;;;0.75;;
21270;SDS011;10795;50.796;3.860;2023-06-04T12:36:28;3.17;;;0.80;;
21270;SDS011;10795;50.796;3.860;2023-06-04T12:38:57;1.05;;;0.80;;
21270;SDS011;10795;50.796;3.860;2023-06-04T12:41:24;2.15;;;0.90;;
21270;SDS011;10795;50.796;3.860;2023-06-04T12:43:51;1.42;;;0.98;;
21270;SDS011;10795;50.796;3.860;2023-06-04T12:46:17;2.72;;;0.90;;
21270;SDS011;10795;50.796;3.860;2023-06-04T12:48:42;1.50;;;0.80;;
21270;SDS011;10795;50.796;3.860;2023-06-04T12:51:08;1.55;;;0.95;;
21270;SDS011;10795;50.796;3.860;2023-06-04T12:53:40;1.00;;;0.77;;
21270;SDS011;10795;50.796;3.860;2023-06-04T12:56:07;2.22;;;0.77;;
21270;SDS011;10795;50.796;3.860;2023-06-04T12:58:33;2.90;;;0.70;;
21270;SDS011;10795;50.796;3.860;2023-06-04T13:00:59;2.13;;;0.90;;
21270;SDS011;10795;50.796;3.860;2023-06-04T13:03:26;4.80;;;1.00;;
21270;SDS011;10795;50.796;3.860;2023-06-04T13:05:52;4.00;;;0.98;;
21270;SDS011;10795;50.796;3.860;2023-06-04T13:08:19;0.93;;;0.88;;
21270;SDS011;10795;50.796;3.860;2023-06-04T13:10:49;1.40;;;0.80;;
21270;SDS011;10795;50.796;3.860;2023-06-04T13:13:16;1.55;;;0.68;;
21270;SDS011;10795;50.796;3.860;2023-06-04T13:18:11;1.10;;;0.80;;
21270;SDS011;10795;50.796;3.860;2023-06-04T13:20:37;1.17;;;0.85;;
21270;SDS011;10795;50.796;3.860;2023-06-04T13:23:05;2.22;;;0.90;;
21270;SDS011;10795;50.796;3.860;2023-06-04T13:25:31;1.13;;;1.00;;
21270;SDS011;10795;50.796;3.860;2023-06-04T13:28:04;0.73;;;0.73;;
21270;SDS011;10795;50.796;3.860;2023-06-04T13:30:30;2.65;;;1.05;;
21270;SDS011;10795;50.796;3.860;2023-06-04T13:32:56;1.35;;;0.77;;
21270;SDS011;10795;50.796;3.860;2023-06-04T13:35:25;1.23;;;0.90;;
21270;SDS011;10795;50.796;3.860;2023-06-04T13:37:50;4.88;;;1.00;;
21270;SDS011;10795;50.796;3.860;2023-06-04T13:40:16;2.15;;;1.10;;
21270;SDS011;10795;50.796;3.860;2023-06-04T13:42:42;1.60;;;1.20;;
21270;SDS011;10795;50.796;3.860;2023-06-04T13:45:09;1.38;;;1.10;;
21270;SDS011;10795;50.796;3.860;2023-06-04T13:47:34;1.58;;;0.93;;
21270;SDS011;10795;50.796;3.860;2023-06-04T13:50:00;2.17;;;0.82;;
21270;SDS011;10795;50.796;3.860;2023-06-04T13:52:26;1.75;;;1.10;;
21270;SDS011;10795;50.796;3.860;2023-06-04T13:54:55;2.45;;;1.05;;
21270;SDS011;10795;50.796;3.860;2023-06-04T13:57:21;1.17;;;0.95;;
21270;SDS011;10795;50.796;3.860;2023-06-04T13:59:48;1.70;;;0.80;;
21270;SDS011;10795;50.796;3.860;2023-06-04T14:02:14;1.98;;;0.88;;
21270;SDS011;10795;50.796;3.860;2023-06-04T14:04:40;1.75;;;1.00;;
21270;SDS011;10795;50.796;3.860;2023-06-04T14:07:06;1.55;;;1.00;;
21270;SDS011;10795;50.796;3.860;2023-06-04T14:09:32;1.70;;;1.05;;
21270;SDS011;10795;50.796;3.860;2023-06-04T14:11:58;1.75;;;1.00;;
21270;SDS011;10795;50.796;3.860;2023-06-04T14:14:24;2.30;;;1.40;;
21270;SDS011;10795;50.796;3.860;2023-06-04T14:16:50;1.00;;;0.90;;
21270;SDS011;10795;50.796;3.860;2023-06-04T14:19:16;1.13;;;0.98;;
21270;SDS011;10795;50.796;3.860;2023-06-04T14:21:42;2.53;;;1.10;;
21270;SDS011;10795;50.796;3.860;2023-06-04T14:24:09;1.52;;;1.20;;
21270;SDS011;10795;50.796;3.860;2023-06-04T14:26:35;1.95;;;1.05;;
21270;SDS011;10795;50.796;3.860;2023-06-04T14:29:01;3.63;;;1.30;;
21270;SDS011;10795;50.796;3.860;2023-06-04T14:31:27;1.90;;;1.35;;
21270;SDS011;10795;50.796;3.860;2023-06-04T14:33:53;1.65;;;1.10;;
21270;SDS011;10795;50.796;3.860;2023-06-04T14:36:19;1.40;;;1.30;;
21270;SDS011;10795;50.796;3.860;2023-06-04T14:38:45;3.83;;;1.25;;
21270;SDS011;10795;50.796;3.860;2023-06-04T14:41:13;1.10;;;1.00;;
21270;SDS011;10795;50.796;3.860;2023-06-04T14:43:40;1.25;;;1.13;;
21270;SDS011;10795;50.796;3.860;2023-06-04T14:46:06;2.92;;;1.10;;
21270;SDS011;10795;50.796;3.860;2023-06-04T14:48:32;1.75;;;1.00;;
21270;SDS011;10795;50.796;3.860;2023-06-04T14:50:57;1.02;;;0.93;;
21270;SDS011;10795;50.796;3.860;2023-06-04T14:53:23;0.93;;;0.90;;
21270;SDS011;10795;50.796;3.860;2023-06-04T14:55:49;2.25;;;1.17;;
21270;SDS011;10795;50.796;3.860;2023-06-04T14:58:17;1.15;;;1.00;;
21270;SDS011;10795;50.796;3.860;2023-06-04T15:00:42;1.90;;;1.60;;
21270;SDS011;10795;50.796;3.860;2023-06-04T15:03:08;1.67;;;1.10;;
21270;SDS011;10795;50.796;3.860;2023-06-04T15:05:34;1.17;;;1.05;;
21270;SDS011;10795;50.796;3.860;2023-06-04T15:08:00;1.27;;;1.15;;
21270;SDS011;10795;50.796;3.860;2023-06-04T15:10:27;17.77;;;1.88;;
21270;SDS011;10795;50.796;3.860;2023-06-04T15:12:53;3.10;;;1.10;;
21270;SDS011;10795;50.796;3.860;2023-06-04T15:15:18;1.23;;;1.10;;
21270;SDS011;10795;50.796;3.860;2023-06-04T15:17:44;2.17;;;1.23;;
21270;SDS011;10795;50.796;3.860;2023-06-04T15:20:10;5.85;;;1.50;;